Time;durP1;ratioP1;P1;durP2;ratioP2;P2;SDS_P1;SDS_P2;PMS_P1;PMS_P2;Temp;Humidity;BMP_temperature;BMP_pressure;BME280_temperature;BME280_humidity;BME280_pressure;Samples;Min_cycle;Max_cycle;Signal;HPM_P1;HPM_P2
2022/06/15 00:01:21;;;;;;;1.30;1.20;;;20.50;59.90;;;;;;5043611;28;43442;-63
2022/06/15 00:03:50;;;;;;;1.75;1.27;;;20.50;59.90;;;;;;5042074;28;43795;-62
2022/06/15 00:06:21;;;;;;;1.10;1.10;;;20.50;60.00;;;;;;5043447;28;43689;-63
2022/06/15 00:08:53;;;;;;;1.95;1.10;;;20.40;59.90;;;;;;5043895;28;43423;-62
2022/06/15 00:11:27;;;;;;;1.35;1.00;;;20.40;59.90;;;;;;5042516;28;43590;-62
2022/06/15 00:13:56;;;;;;;1.15;1.15;;;20.40;59.90;;;;;;5036190;28;45288;-62
2022/06/15 00:16:25;;;;;;;1.10;1.10;;;20.40;59.90;;;;;;5042568;28;43447;-63
2022/06/15 00:18:53;;;;;;;1.15;1.05;;;20.40;59.90;;;;;;5044622;28;43529;-62
2022/06/15 00:21:21;;;;;;;1.13;1.02;;;20.40;59.90;;;;;;5041989;28;43916;-63
2022/06/15 00:23:50;;;;;;;1.15;1.10;;;20.40;60.50;;;;;;5048730;28;44410;-63
2022/06/15 00:26:18;;;;;;;1.23;1.13;;;20.40;59.90;;;;;;5043371;28;43483;-63
2022/06/15 00:28:45;;;;;;;1.10;1.08;;;20.40;60.00;;;;;;5042405;28;43451;-62
2022/06/15 00:31:13;;;;;;;1.30;1.20;;;20.40;60.00;;;;;;5042232;28;43461;-62
2022/06/15 00:33:40;;;;;;;0.93;0.93;;;20.40;60.00;;;;;;5037208;28;44127;-62
2022/06/15 00:36:12;;;;;;;1.20;1.10;;;20.30;59.90;;;;;;5043316;28;43570;-62
2022/06/15 00:38:40;;;;;;;;;;;20.30;59.90;;;;;;5043589;28;43437;-62
2022/06/15 00:41:14;;;;;;;1.08;0.98;;;20.30;59.90;;;;;;5040836;28;43932;-62
2022/06/15 00:43:44;;;;;;;1.00;1.00;;;20.30;60.00;;;;;;5042777;28;44126;-62
2022/06/15 00:46:24;;;;;;;1.27;1.17;;;20.30;60.00;;;;;;5042498;28;43356;-62
2022/06/15 00:49:17;;;;;;;1.40;1.30;;;20.30;60.00;;;;;;5039219;28;43515;-63
2022/06/15 00:51:46;;;;;;;1.00;1.00;;;20.30;60.00;;;;;;5036805;28;43598;-62
2022/06/15 00:54:14;;;;;;;0.98;0.98;;;20.30;60.00;;;;;;5042613;28;43752;-62
2022/06/15 00:56:42;;;;;;;1.30;1.20;;;20.30;60.00;;;;;;5042189;28;43990;-63
2022/06/15 00:59:22;;;;;;;0.90;0.90;;;20.30;60.00;;;;;;5026034;28;43409;-62
2022/06/15 01:01:50;;;;;;;1.20;1.10;;;20.30;60.00;;;;;;5034567;28;43494;-62
2022/06/15 01:04:19;;;;;;;1.33;1.13;;;20.30;60.70;;;;;;5042068;28;44224;-62
2022/06/15 01:07:25;;;;;;;1.38;1.30;;;20.20;60.00;;;;;;5041863;28;44462;-63
2022/06/15 01:10:17;;;;;;;1.30;1.20;;;20.30;60.00;;;;;;4966805;28;43506;-63
2022/06/15 01:12:44;;;;;;;1.35;1.10;;;20.20;60.00;;;;;;4951356;28;43498;-63
2022/06/15 01:15:30;;;;;;;1.10;1.10;;;20.20;60.00;;;;;;5026860;28;43806;-63
2022/06/15 01:18:30;;;;;;;1.08;1.08;;;20.20;60.00;;;;;;5042438;28;43562;-62
2022/06/15 01:21:02;;;;;;;1.10;1.10;;;20.20;60.00;;;;;;5034829;28;43500;-62
2022/06/15 01:23:48;;;;;;;1.30;1.20;;;20.20;60.00;;;;;;5045099;28;43375;-63
2022/06/15 01:26:28;;;;;;;1.40;1.30;;;20.20;60.00;;;;;;5038655;28;44690;-63
2022/06/15 01:29:10;;;;;;;1.25;1.15;;;20.20;60.10;;;;;;5074743;28;43418;-62
2022/06/15 01:32:12;;;;;;;1.05;0.98;;;20.20;60.00;;;;;;5041333;28;43496;-62
2022/06/15 01:34:43;;;;;;;;;;;20.20;60.00;;;;;;5039059;28;43539;-62
2022/06/15 01:37:34;;;;;;;2.03;1.30;;;20.20;60.10;;;;;;5046090;28;44056;-63
2022/06/15 01:40:22;;;;;;;1.38;1.27;;;20.10;60.10;;;;;;5044691;28;43456;-62
2022/06/15 01:43:01;;;;;;;1.20;1.10;;;20.10;60.10;;;;;;5045840;28;43447;-62
2022/06/15 01:45:32;;;;;;;1.00;1.00;;;20.10;60.10;;;;;;5045386;28;43698;-62
2022/06/15 01:48:04;;;;;;;1.10;1.10;;;20.10;60.10;;;;;;5040781;28;44041;-62
2022/06/15 01:50:38;;;;;;;1.27;1.20;;;20.10;60.00;;;;;;5034066;28;44013;-63
2022/06/15 01:53:17;;;;;;;1.30;1.20;;;20.10;60.00;;;;;;5045538;28;43505;-62
2022/06/15 01:56:12;;;;;;;1.00;1.00;;;20.10;60.00;;;;;;5043928;28;43536;-62
2022/06/15 01:58:42;;;;;;;1.50;1.27;;;20.10;60.70;;;;;;5077889;28;44157;-62
2022/06/15 02:01:10;;;;;;;1.00;1.00;;;20.10;60.10;;;;;;5060993;28;46269;-62
2022/06/15 02:03:56;;;;;;;1.13;1.02;;;20.10;60.00;;;;;;5043950;28;43455;-62
2022/06/15 02:06:59;;;;;;;1.25;1.20;;;20.10;60.00;;;;;;5045164;28;43523;-62
2022/06/15 02:09:36;;;;;;;1.10;1.10;;;20.10;60.00;;;;;;5021147;28;44267;-62
2022/06/15 02:12:07;;;;;;;1.00;1.00;;;20.00;60.00;;;;;;5044156;28;43779;-63
2022/06/15 02:14:50;;;;;;;1.00;1.00;;;20.10;60.10;;;;;;5073076;28;43440;-62
2022/06/15 02:17:21;;;;;;;1.30;1.20;;;20.00;60.00;;;;;;5042343;28;43525;-62
2022/06/15 02:19:54;;;;;;;1.27;1.17;;;20.00;60.00;;;;;;5044050;28;44958;-63
2022/06/15 02:22:29;;;;;;;1.00;1.00;;;20.00;60.00;;;;;;5044733;28;43393;-63
2022/06/15 02:25:01;;;;;;;1.13;1.10;;;20.00;60.10;;;;;;5081035;27;43346;-63
2022/06/15 02:27:30;;;;;;;1.30;1.20;;;20.00;60.10;;;;;;5078348;28;43601;-63
2022/06/15 02:30:20;;;;;;;1.13;1.00;;;20.00;60.00;;;;;;5044467;28;44022;-63
2022/06/15 02:32:52;;;;;;;1.23;1.13;;;20.00;60.00;;;;;;5040744;28;43493;-62
2022/06/15 02:35:22;;;;;;;1.08;1.08;;;20.00;60.00;;;;;;5077569;28;43504;-62
2022/06/15 02:37:52;;;;;;;1.23;1.13;;;20.00;60.00;;;;;;5044792;28;43638;-62
2022/06/15 02:40:23;;;;;;;1.02;1.02;;;20.00;60.10;;;;;;5076997;28;44858;-62
2022/06/15 02:42:51;;;;;;;1.27;1.20;;;20.00;60.10;;;;;;5076277;28;43841;-62
2022/06/15 02:45:24;;;;;;;1.17;1.08;;;20.00;60.00;;;;;;5076915;27;43470;-62
2022/06/15 02:47:54;;;;;;;0.80;0.80;;;20.00;60.00;;;;;;5043680;28;43509;-62
2022/06/15 02:50:29;;;;;;;0.90;0.90;;;20.00;60.00;;;;;;5043119;28;44989;-62
2022/06/15 02:53:20;;;;;;;1.02;1.02;;;20.00;60.00;;;;;;5043350;28;43903;-62
2022/06/15 02:55:49;;;;;;;1.00;1.00;;;19.90;60.00;;;;;;5044386;28;43543;-62
2022/06/15 02:58:27;;;;;;;0.87;0.87;;;20.00;60.10;;;;;;5043483;28;43436;-63
2022/06/15 03:00:57;;;;;;;1.20;1.10;;;19.90;60.00;;;;;;5043032;28;43793;-62
2022/06/15 03:03:28;;;;;;;;;;;19.90;60.00;;;;;;5043293;28;43595;-63
2022/06/15 03:06:14;;;;;;;1.00;1.00;;;19.90;60.00;;;;;;5042993;28;43425;-62
2022/06/15 03:08:45;;;;;;;1.10;1.10;;;19.90;60.20;;;;;;5044106;28;43606;-62
2022/06/15 03:11:27;;;;;;;1.25;1.15;;;19.90;60.10;;;;;;5043068;28;45029;-62
2022/06/15 03:14:00;;;;;;;1.08;1.08;;;19.90;60.10;;;;;;5044033;28;43977;-62
2022/06/15 03:16:29;;;;;;;1.10;1.10;;;19.90;60.70;;;;;;5042311;28;43440;-62
2022/06/15 03:18:57;;;;;;;1.02;1.00;;;19.90;60.10;;;;;;5043053;28;43603;-62
2022/06/15 03:21:25;;;;;;;1.30;1.00;;;19.90;60.00;;;;;;5042168;28;45294;-63
2022/06/15 03:23:52;;;;;;;1.33;1.17;;;19.90;60.10;;;;;;5046993;28;43539;-62
2022/06/15 03:26:20;;;;;;;1.10;1.10;;;19.90;60.10;;;;;;5043005;28;43466;-63
2022/06/15 03:28:48;;;;;;;1.33;1.00;;;19.90;60.10;;;;;;5043962;28;43527;-63
2022/06/15 03:31:19;;;;;;;1.33;1.23;;;19.90;60.10;;;;;;5044067;28;43976;-63
2022/06/15 03:33:46;;;;;;;1.08;1.05;;;19.90;60.10;;;;;;5036382;28;43827;-63
2022/06/15 03:36:20;;;;;;;0.90;0.90;;;19.90;60.10;;;;;;5043900;28;43416;-62
2022/06/15 03:38:47;;;;;;;0.93;0.93;;;19.90;60.10;;;;;;5043080;28;43431;-63
2022/06/15 03:41:26;;;;;;;1.10;1.00;;;19.90;60.10;;;;;;5029124;28;44441;-62
2022/06/15 03:43:55;;;;;;;1.20;1.10;;;19.90;60.10;;;;;;5025635;28;44248;-62
2022/06/15 03:46:25;;;;;;;0.93;0.93;;;19.90;60.10;;;;;;5042830;28;43340;-62
2022/06/15 03:49:01;;;;;;;1.17;1.02;;;19.90;60.10;;;;;;5043000;28;43433;-62
2022/06/15 03:51:29;;;;;;;1.00;1.00;;;19.80;60.00;;;;;;5026815;28;44009;-62
2022/06/15 03:54:02;;;;;;;1.05;1.02;;;19.80;60.00;;;;;;5043107;28;43375;-63
2022/06/15 03:56:50;;;;;;;1.00;1.00;;;19.90;60.10;;;;;;5041587;28;43502;-62
2022/06/15 03:59:22;;;;;;;0.90;0.90;;;19.80;60.00;;;;;;5042583;28;43585;-62
2022/06/15 04:01:54;;;;;;;0.90;0.90;;;19.80;60.10;;;;;;5042161;28;44699;-62
2022/06/15 04:04:22;;;;;;;1.15;1.10;;;19.80;60.10;;;;;;5042045;28;44005;-62
2022/06/15 04:06:50;;;;;;;0.93;0.93;;;19.80;60.10;;;;;;5043471;28;43545;-63
2022/06/15 04:09:26;;;;;;;0.90;0.90;;;19.80;60.10;;;;;;5042306;28;43637;-63
2022/06/15 04:12:02;;;;;;;1.10;1.00;;;19.80;60.10;;;;;;5041517;28;44955;-62
2022/06/15 04:14:34;;;;;;;0.80;0.80;;;19.80;60.70;;;;;;5071683;28;43574;-63
2022/06/15 04:17:20;;;;;;;1.27;0.80;;;19.80;60.10;;;;;;5040637;28;43465;-63
2022/06/15 04:23:21;;;;;;;1.02;1.00;;;19.80;60.10;;;;;;5046680;28;43812;-62
2022/06/15 04:25:59;;;;;;;1.05;1.00;;;19.80;60.20;;;;;;5041596;28;43555;-62
2022/06/15 04:28:44;;;;;;;1.27;0.95;;;19.80;60.10;;;;;;5042033;28;43621;-63
2022/06/15 04:31:21;;;;;;;0.90;0.90;;;19.80;60.20;;;;;;5042504;28;43996;-62
2022/06/15 04:33:49;;;;;;;0.90;0.90;;;19.80;60.20;;;;;;5041745;28;44987;-63
2022/06/15 04:36:17;;;;;;;1.00;1.00;;;19.80;60.10;;;;;;5042717;28;43459;-63
2022/06/15 04:38:50;;;;;;;1.48;1.00;;;19.70;60.10;;;;;;5024558;28;43531;-62
2022/06/15 04:41:26;;;;;;;0.90;0.90;;;19.70;60.10;;;;;;5050625;28;44056;-62
2022/06/15 04:43:53;;;;;;;0.88;0.80;;;19.70;60.10;;;;;;5041540;28;44291;-62
2022/06/15 04:46:21;;;;;;;1.15;1.02;;;19.80;60.10;;;;;;5042199;28;43545;-63
2022/06/15 04:48:51;;;;;;;1.10;0.97;;;19.70;60.10;;;;;;5041680;28;43510;-63
2022/06/15 04:51:26;;;;;;;0.90;0.90;;;19.70;60.30;;;;;;5076233;28;43993;-63
2022/06/15 04:53:57;;;;;;;0.90;0.90;;;19.70;60.30;;;;;;5042343;28;45049;-62
2022/06/15 04:56:26;;;;;;;1.02;0.93;;;19.70;60.30;;;;;;5042694;28;43452;-62
2022/06/15 04:58:54;;;;;;;1.65;0.90;;;19.70;60.30;;;;;;5041758;28;43423;-63
2022/06/15 05:01:23;;;;;;;0.95;0.95;;;19.70;60.30;;;;;;5041670;28;43645;-63
2022/06/15 05:03:51;;;;;;;0.90;0.90;;;19.70;60.30;;;;;;5041198;28;43849;-63
2022/06/15 05:06:21;;;;;;;1.20;1.10;;;19.70;60.30;;;;;;5041081;28;43944;-63
2022/06/15 05:08:49;;;;;;;0.93;0.93;;;19.70;60.30;;;;;;5031748;28;43441;-63
2022/06/15 05:11:16;;;;;;;1.05;1.05;;;19.70;60.30;;;;;;5042845;28;43597;-63
2022/06/15 05:13:44;;;;;;;0.80;0.80;;;19.70;60.30;;;;;;5041183;28;44183;-62
2022/06/15 05:16:12;;;;;;;0.85;0.85;;;19.70;60.30;;;;;;5041042;28;43510;-63
2022/06/15 05:18:40;;;;;;;1.05;0.95;;;19.70;60.30;;;;;;5036331;28;43517;-63
2022/06/15 05:21:13;;;;;;;0.85;0.85;;;19.70;60.30;;;;;;5042036;28;44228;-63
2022/06/15 05:23:43;;;;;;;1.38;0.70;;;19.70;60.30;;;;;;5046148;28;44082;-63
2022/06/15 05:26:16;;;;;;;0.73;0.73;;;19.70;60.30;;;;;;5039425;28;43569;-63
2022/06/15 05:28:45;;;;;;;0.80;0.80;;;19.70;60.20;;;;;;5042309;28;44254;-63
2022/06/15 05:31:21;;;;;;;1.00;1.00;;;19.70;60.40;;;;;;5041515;28;43586;-63
2022/06/15 05:33:56;;;;;;;0.90;0.90;;;19.70;60.40;;;;;;5041093;28;44686;-63
2022/06/15 05:36:28;;;;;;;0.90;0.90;;;19.70;60.40;;;;;;5042227;28;43502;-62
2022/06/15 05:38:55;;;;;;;0.80;0.80;;;19.70;60.40;;;;;;5041345;28;43386;-63
2022/06/15 05:41:25;;;;;;;0.80;0.80;;;19.70;60.40;;;;;;5041953;28;43512;-63
2022/06/15 05:44:00;;;;;;;0.80;0.80;;;19.70;60.40;;;;;;5040833;28;44721;-63
2022/06/15 05:46:34;;;;;;;0.98;0.98;;;19.70;60.50;;;;;;5074216;28;44045;-62
2022/06/15 05:49:28;;;;;;;0.82;0.82;;;19.70;60.40;;;;;;5042264;28;43417;-62
2022/06/15 05:51:57;;;;;;;0.68;0.68;;;19.70;60.40;;;;;;5040139;28;43560;-63
2022/06/15 05:54:27;;;;;;;0.88;0.88;;;19.70;60.50;;;;;;5040675;28;44069;-63
2022/06/15 05:56:54;;;;;;;0.80;0.80;;;19.70;60.40;;;;;;5041769;28;43984;-63
2022/06/15 05:59:22;;;;;;;0.82;0.82;;;19.70;60.40;;;;;;5041755;28;43438;-64
2022/06/15 06:01:49;;;;;;;0.75;0.75;;;19.70;60.50;;;;;;5041456;28;43688;-62
2022/06/15 06:04:19;;;;;;;0.80;0.80;;;19.70;60.50;;;;;;5040833;28;44138;-63
2022/06/15 06:06:50;;;;;;;0.80;0.80;;;19.70;60.40;;;;;;5041648;28;43494;-63
2022/06/15 06:09:17;;;;;;;1.17;1.17;;;19.70;60.40;;;;;;5040939;28;43420;-63
2022/06/15 06:11:45;;;;;;;0.80;0.80;;;19.70;60.50;;;;;;5042027;28;43573;-63
2022/06/15 06:14:12;;;;;;;0.90;0.90;;;19.70;60.50;;;;;;5040570;28;43929;-63
2022/06/15 06:16:40;;;;;;;1.33;0.73;;;19.70;60.40;;;;;;5041433;28;43426;-63
2022/06/15 06:19:07;;;;;;;1.42;0.90;;;19.70;60.50;;;;;;5040649;28;43418;-63
2022/06/15 06:21:35;;;;;;;0.90;0.80;;;19.70;60.50;;;;;;5044668;28;43470;-63
2022/06/15 06:24:02;;;;;;;0.88;0.88;;;19.70;60.50;;;;;;5050300;28;43808;-63
2022/06/15 06:26:31;;;;;;;0.80;0.80;;;19.70;60.50;;;;;;5044800;28;43723;-63
2022/06/15 06:28:59;;;;;;;0.82;0.80;;;19.70;60.50;;;;;;5045016;28;43463;-63
2022/06/15 06:31:28;;;;;;;1.05;0.77;;;19.70;60.50;;;;;;5033937;28;43451;-62
2022/06/15 06:33:56;;;;;;;0.82;0.70;;;19.70;60.50;;;;;;5043622;28;44074;-63
2022/06/15 06:36:42;;;;;;;0.80;0.80;;;19.70;60.50;;;;;;5045037;28;43476;-62
2022/06/15 06:39:26;;;;;;;0.68;0.68;;;19.70;60.50;;;;;;5043542;28;43379;-62
2022/06/15 06:42:05;;;;;;;0.80;0.80;;;19.70;60.60;;;;;;5042989;28;43601;-63
2022/06/15 06:44:36;;;;;;;0.88;0.88;;;19.70;60.60;;;;;;5041642;28;43846;-63
2022/06/15 06:47:06;;;;;;;0.77;0.77;;;19.70;60.50;;;;;;5042930;28;43713;-63
2022/06/15 06:49:35;;;;;;;0.80;0.80;;;19.70;60.50;;;;;;5040514;28;43539;-63
2022/06/15 06:52:03;;;;;;;1.02;1.00;;;19.70;60.50;;;;;;5043468;28;43530;-62
2022/06/15 06:54:31;;;;;;;0.70;0.70;;;19.70;60.60;;;;;;5041407;28;43648;-63
2022/06/15 06:56:59;;;;;;;0.95;0.80;;;19.70;60.60;;;;;;5043147;28;44129;-63
2022/06/15 06:59:27;;;;;;;0.80;0.80;;;19.70;60.60;;;;;;5043759;28;43457;-63
2022/06/15 07:01:55;;;;;;;0.80;0.80;;;19.70;60.50;;;;;;5043328;28;43552;-62
2022/06/15 07:04:23;;;;;;;0.82;0.82;;;19.70;60.60;;;;;;5042407;28;44343;-63
2022/06/15 07:06:51;;;;;;;0.88;0.88;;;19.70;60.50;;;;;;5041112;28;43789;-63
2022/06/15 07:09:18;;;;;;;0.80;0.80;;;19.80;60.60;;;;;;5043905;28;43459;-63
2022/06/15 07:11:45;;;;;;;0.90;0.90;;;19.80;60.60;;;;;;5041276;28;43531;-62
2022/06/15 07:14:14;;;;;;;0.80;0.80;;;19.80;60.60;;;;;;5041583;28;44706;-63
2022/06/15 07:16:42;;;;;;;0.80;0.80;;;19.80;60.50;;;;;;5043430;28;43430;-63
2022/06/15 07:19:10;;;;;;;0.70;0.70;;;19.80;60.50;;;;;;5043483;28;43457;-62
2022/06/15 07:21:38;;;;;;;0.65;0.65;;;19.80;60.50;;;;;;5024692;28;43586;-63
2022/06/15 07:24:08;;;;;;;1.98;0.82;;;19.80;60.50;;;;;;5041219;28;43817;-63
2022/06/15 07:26:41;;;;;;;0.80;0.80;;;19.80;60.50;;;;;;5040684;28;43499;-63
2022/06/15 07:29:11;;;;;;;0.80;0.80;;;19.90;60.60;;;;;;5042989;28;43429;-63
2022/06/15 07:31:45;;;;;;;0.80;0.80;;;19.90;60.60;;;;;;5042090;28;43503;-63
2022/06/15 07:34:13;;;;;;;0.70;0.70;;;19.90;60.60;;;;;;5041852;28;44846;-63
2022/06/15 07:36:46;;;;;;;0.68;0.68;;;19.90;61.20;;;;;;5042137;28;43863;-62
2022/06/15 07:39:20;;;;;;;0.60;0.60;;;19.90;60.70;;;;;;5042406;28;43464;-63
2022/06/15 07:41:49;;;;;;;0.60;0.60;;;19.90;60.70;;;;;;5042251;28;43549;-62
2022/06/15 07:44:18;;;;;;;0.70;0.70;;;19.90;60.70;;;;;;5043067;28;43762;-63
2022/06/15 07:46:46;;;;;;;0.70;0.70;;;19.90;60.60;;;;;;5042334;28;43559;-62
2022/06/15 07:52:05;;;;;;;0.90;0.90;;;19.90;60.90;;;;;;5074166;28;43589;-62
2022/06/15 07:54:33;;;;;;;0.90;0.90;;;19.90;61.10;;;;;;5041077;28;44689;-62
2022/06/15 07:57:00;;;;;;;0.80;0.80;;;20.00;61.10;;;;;;5042215;28;43975;-62
2022/06/15 07:59:28;;;;;;;0.80;0.80;;;19.90;60.90;;;;;;5042359;28;43390;-63
2022/06/15 08:01:55;;;;;;;1.10;0.85;;;19.90;60.80;;;;;;5042043;28;44521;-62
2022/06/15 08:04:23;;;;;;;0.75;0.75;;;19.90;60.90;;;;;;5041402;28;43790;-63
2022/06/15 08:06:51;;;;;;;1.08;0.70;;;19.90;60.70;;;;;;5041594;28;44306;-63
2022/06/15 08:09:19;;;;;;;0.85;0.85;;;19.90;60.70;;;;;;5040945;28;43529;-63
2022/06/15 08:14:36;;;;;;;0.90;0.90;;;19.90;60.60;;;;;;5042359;28;43778;-63
2022/06/15 08:17:05;;;;;;;0.50;0.50;;;19.90;60.60;;;;;;5041617;28;43717;-63
2022/06/15 08:19:36;;;;;;;1.10;0.95;;;19.90;60.50;;;;;;5042475;28;43454;-62
2022/06/15 08:22:04;;;;;;;1.00;0.90;;;19.90;60.50;;;;;;5041456;28;43427;-62
2022/06/15 08:24:33;;;;;;;1.30;0.90;;;19.90;60.50;;;;;;5040977;28;44891;-62
2022/06/15 08:27:01;;;;;;;0.75;0.75;;;19.90;60.50;;;;;;5040569;28;44065;-63
2022/06/15 08:29:29;;;;;;;0.85;0.85;;;20.00;60.50;;;;;;5041565;28;43401;-63
2022/06/15 08:31:57;;;;;;;1.00;1.00;;;19.90;61.20;;;;;;5025085;28;43537;-62
2022/06/15 08:34:26;;;;;;;1.33;1.00;;;20.00;60.70;;;;;;5039622;28;44054;-63
2022/06/15 08:36:54;;;;;;;1.00;0.90;;;20.00;60.70;;;;;;5040880;28;43511;-63
2022/06/15 08:39:22;;;;;;;1.10;1.00;;;19.90;60.70;;;;;;5043043;28;43508;-62
2022/06/15 08:42:10;;;;;;;0.98;0.93;;;20.00;60.70;;;;;;5042811;28;43641;-63
2022/06/15 08:44:50;;;;;;;1.15;0.90;;;20.00;60.70;;;;;;5042165;28;44056;-62
2022/06/15 08:47:34;;;;;;;0.88;0.88;;;20.00;60.70;;;;;;5030298;28;43476;-63
2022/06/15 08:50:35;;;;;;;0.80;0.80;;;20.00;60.70;;;;;;5043114;28;43504;-63
2022/06/15 08:53:02;;;;;;;1.10;1.00;;;20.00;60.50;;;;;;5075341;28;43492;-63
2022/06/15 08:55:36;;;;;;;0.80;0.80;;;20.10;60.50;;;;;;5041629;28;43931;-63
2022/06/15 08:58:24;;;;;;;1.10;1.00;;;20.00;60.40;;;;;;5042549;28;43468;-63
2022/06/15 09:00:57;;;;;;;2.00;1.10;;;20.10;60.40;;;;;;5042427;28;43506;-63
2022/06/15 09:03:40;;;;;;;0.70;0.70;;;20.10;60.40;;;;;;5043417;28;43981;-63
2022/06/15 09:06:10;;;;;;;0.90;0.90;;;20.10;60.20;;;;;;5042815;28;43997;-63
2022/06/15 09:09:13;;;;;;;0.70;0.70;;;20.10;60.40;;;;;;5041999;28;43561;-63
2022/06/15 09:15:13;;;;;;;0.90;0.90;;;20.10;60.50;;;;;;5043281;28;43471;-63
2022/06/15 09:17:41;;;;;;;1.00;1.00;;;20.10;60.70;;;;;;5036422;28;43809;-63
2022/06/15 09:20:26;;;;;;;1.05;1.00;;;20.10;60.40;;;;;;5038666;28;43514;-62
2022/06/15 09:23:07;;;;;;;1.00;1.00;;;20.20;60.40;;;;;;5040794;28;43612;-63
2022/06/15 09:26:06;;;;;;;2.47;1.00;;;20.10;60.30;;;;;;5040860;28;43622;-63
2022/06/15 09:28:39;;;;;;;1.08;1.00;;;20.10;60.30;;;;;;5010552;28;44029;-63
2022/06/15 09:31:12;;;;;;;1.58;1.10;;;20.20;60.60;;;;;;5039625;28;43710;-62
2022/06/15 09:33:47;;;;;;;0.90;0.80;;;20.20;60.60;;;;;;5041094;28;44056;-63
2022/06/15 09:36:21;;;;;;;0.90;0.90;;;20.20;60.60;;;;;;5041608;28;43455;-63
2022/06/15 09:38:49;;;;;;;1.33;1.00;;;20.30;60.70;;;;;;5041314;28;45289;-63
2022/06/15 09:41:35;;;;;;;0.93;0.93;;;20.20;60.70;;;;;;5040553;28;43724;-63
2022/06/15 09:44:22;;;;;;;0.70;0.70;;;20.20;60.60;;;;;;5041124;28;44095;-63
2022/06/15 09:47:21;;;;;;;0.82;0.82;;;20.30;60.50;;;;;;5040825;28;43528;-62
2022/06/15 09:50:04;;;;;;;1.10;1.00;;;20.30;60.50;;;;;;5037960;28;46157;-63
2022/06/15 09:52:49;;;;;;;0.90;0.90;;;20.30;60.40;;;;;;5040301;28;43771;-63
2022/06/15 09:55:32;;;;;;;1.30;1.00;;;20.30;60.30;;;;;;5041503;28;43461;-62
2022/06/15 09:58:01;;;;;;;1.17;1.08;;;20.30;60.20;;;;;;5042842;28;43535;-63
2022/06/15 10:00:29;;;;;;;0.90;0.90;;;20.30;60.20;;;;;;5044643;28;44684;-63
2022/06/15 10:03:02;;;;;;;0.80;0.80;;;20.30;60.30;;;;;;5043043;28;44297;-63
2022/06/15 10:05:42;;;;;;;0.90;0.85;;;20.40;60.40;;;;;;5043349;28;43460;-63
2022/06/15 10:08:15;;;;;;;1.13;1.02;;;20.40;60.30;;;;;;5044563;28;43507;-63
2022/06/15 10:10:49;;;;;;;1.13;0.80;;;20.40;60.20;;;;;;5042510;28;45048;-63
2022/06/15 10:13:17;;;;;;;0.95;0.93;;;20.40;60.20;;;;;;5043797;28;43475;-63
2022/06/15 10:15:50;;;;;;;0.88;0.80;;;20.40;60.10;;;;;;5044338;28;43403;-63
2022/06/15 10:18:39;;;;;;;1.50;1.40;;;20.50;60.10;;;;;;5044197;28;43459;-63
2022/06/15 10:21:20;;;;;;;1.10;1.10;;;20.50;60.20;;;;;;5041465;28;43807;-62
2022/06/15 10:23:54;;;;;;;1.13;1.10;;;20.50;60.20;;;;;;5042061;28;43529;-63
2022/06/15 10:26:47;;;;;;;1.10;1.00;;;20.50;60.20;;;;;;5040698;28;43515;-63
2022/06/15 10:29:14;;;;;;;1.15;1.10;;;20.50;60.10;;;;;;5043449;28;43459;-62
2022/06/15 10:31:56;;;;;;;1.25;0.82;;;20.50;60.10;;;;;;5042679;28;44062;-63
2022/06/15 10:34:45;;;;;;;1.27;1.00;;;20.60;60.10;;;;;;5043180;28;43975;-62
2022/06/15 10:37:19;;;;;;;1.27;1.15;;;20.60;60.00;;;;;;5043906;28;43497;-62
2022/06/15 10:39:52;;;;;;;1.38;1.27;;;20.50;60.00;;;;;;5044421;28;43504;-63
2022/06/15 10:42:24;;;;;;;1.40;1.10;;;20.60;60.00;;;;;;5042513;28;43798;-62
2022/06/15 10:45:05;;;;;;;1.20;1.10;;;20.60;60.00;;;;;;5042524;28;43426;-62
2022/06/15 10:48:06;;;;;;;1.20;1.13;;;20.60;59.90;;;;;;5043486;28;44291;-62
2022/06/15 10:50:50;;;;;;;1.38;1.00;;;20.60;59.90;;;;;;5040657;28;43993;-63
2022/06/15 10:53:34;;;;;;;0.98;0.98;;;20.70;60.00;;;;;;5042869;28;44980;-63
2022/06/15 11:04:32;;;;;;;1.33;1.23;;;20.70;60.00;;;;;;5043053;28;43890;-63
2022/06/15 11:07:16;;;;;;;1.50;1.27;;;20.70;59.90;;;;;;5041630;28;43494;-63
2022/06/15 11:10:07;;;;;;;1.17;1.10;;;20.80;59.90;;;;;;5041503;28;44065;-62
2022/06/15 11:12:54;;;;;;;1.30;1.20;;;20.80;59.70;;;;;;5042946;28;43570;-62
2022/06/15 11:18:27;;;;;;;1.13;1.10;;;20.80;59.70;;;;;;5041730;28;43459;-62
2022/06/15 11:21:12;;;;;;;1.10;1.00;;;20.80;60.50;;;;;;5042331;28;43522;-63
2022/06/15 11:23:51;;;;;;;1.48;1.30;;;20.80;59.80;;;;;;5043570;28;43473;-62
2022/06/15 11:26:57;;;;;;;1.33;1.23;;;20.90;59.80;;;;;;5042795;28;43788;-62
2022/06/15 11:29:36;;;;;;;1.38;1.27;;;20.90;59.70;;;;;;5010993;28;43602;-63
2022/06/15 11:32:16;;;;;;;1.73;1.40;;;20.90;59.70;;;;;;5042287;28;43470;-62
2022/06/15 11:35:00;;;;;;;2.03;1.50;;;21.00;59.90;;;;;;5043025;28;43463;-62
2022/06/15 11:37:38;;;;;;;1.00;1.00;;;21.00;59.70;;;;;;5042881;28;43801;-62
2022/06/15 11:40:18;;;;;;;1.35;1.25;;;21.00;59.70;;;;;;5042584;28;43745;-62
2022/06/15 11:42:52;;;;;;;1.98;1.42;;;21.00;59.70;;;;;;5041686;28;43501;-62
2022/06/15 11:45:47;;;;;;;1.80;1.50;;;21.00;59.60;;;;;;5041232;28;43451;-63
2022/06/15 11:48:38;;;;;;;1.33;1.23;;;21.10;59.80;;;;;;5005060;28;44730;-64
2022/06/15 11:51:21;;;;;;;;;;;21.10;59.00;;;;;;5040818;28;43596;-63
2022/06/15 11:54:25;;;;;;;2.08;1.50;;;21.10;58.40;;;;;;5041950;28;43426;-63
2022/06/15 11:56:57;;;;;;;3.30;1.70;;;21.10;58.00;;;;;;5039675;28;43471;-62
2022/06/15 11:59:42;;;;;;;2.10;1.70;;;21.10;56.90;;;;;;5039967;28;43793;-63
2022/06/15 12:02:18;;;;;;;2.95;1.77;;;21.10;56.70;;;;;;5040540;28;44111;-63
2022/06/15 12:04:50;;;;;;;3.13;1.95;;;21.10;56.60;;;;;;5040019;28;43564;-62
2022/06/15 12:07:47;;;;;;;1.90;1.60;;;21.00;55.40;;;;;;5041168;28;43558;-62
2022/06/15 12:10:35;;;;;;;1.92;1.83;;;21.00;56.20;;;;;;4989140;28;44411;-62
2022/06/15 12:13:34;;;;;;;2.00;1.63;;;21.00;55.60;;;;;;5041827;28;44053;-63
2022/06/15 12:16:09;;;;;;;2.42;1.55;;;21.00;55.80;;;;;;5024095;28;43525;-63
2022/06/15 12:18:51;;;;;;;2.17;1.70;;;21.00;55.30;;;;;;5042054;28;43573;-62
2022/06/15 12:21:40;;;;;;;2.22;1.70;;;21.00;55.00;;;;;;5041380;28;44634;-63
2022/06/15 12:24:21;;;;;;;2.30;1.88;;;21.00;54.50;;;;;;5041850;28;43498;-62
2022/06/15 12:27:24;;;;;;;3.17;2.03;;;21.00;54.20;;;;;;5039137;28;43458;-63
2022/06/15 12:30:02;;;;;;;2.47;1.88;;;21.00;53.60;;;;;;5039371;28;44135;-62
2022/06/15 12:32:41;;;;;;;3.80;2.00;;;21.00;54.30;;;;;;5042427;28;44931;-63
2022/06/15 12:35:41;;;;;;;2.20;1.77;;;21.00;53.80;;;;;;5042228;28;43928;-63
2022/06/15 12:38:49;;;;;;;1.98;1.70;;;21.00;53.70;;;;;;5037674;28;43427;-63
2022/06/15 12:44:34;;;;;;;2.08;1.70;;;21.00;54.10;;;;;;5039305;28;43713;-63
2022/06/15 12:47:02;;;;;;;2.03;1.70;;;21.10;53.70;;;;;;5041761;28;43525;-63
2022/06/15 12:50:08;;;;;;;2.03;1.80;;;21.10;53.80;;;;;;5039202;28;43388;-63
2022/06/15 12:52:52;;;;;;;2.03;1.80;;;21.10;53.20;;;;;;5039166;28;43408;-63
2022/06/15 12:55:41;;;;;;;3.17;1.80;;;21.20;53.30;;;;;;5039813;28;44357;-63
2022/06/15 12:58:17;;;;;;;1.85;1.70;;;21.20;53.40;;;;;;5037951;28;43566;-63
2022/06/15 13:01:05;;;;;;;1.98;1.77;;;21.20;53.50;;;;;;5042211;28;43478;-63
2022/06/15 13:04:06;;;;;;;2.97;2.17;;;21.20;52.90;;;;;;5039664;28;43372;-64
2022/06/15 13:06:40;;;;;;;2.10;1.90;;;21.20;53.40;;;;;;5041124;28;45000;-63
2022/06/15 13:09:18;;;;;;;2.60;1.60;;;21.20;53.90;;;;;;5041659;28;44047;-63
2022/06/15 13:11:52;;;;;;;3.10;2.00;;;21.20;54.20;;;;;;5053423;28;43490;-63
2022/06/15 13:14:23;;;;;;;2.13;1.70;;;21.20;53.50;;;;;;5039668;28;43542;-63
2022/06/15 13:17:03;;;;;;;2.13;1.70;;;21.20;53.50;;;;;;5041367;28;44030;-63
2022/06/15 13:19:40;;;;;;;1.80;1.70;;;21.20;53.00;;;;;;5040826;28;43461;-63
2022/06/15 13:22:18;;;;;;;1.80;1.70;;;21.20;53.80;;;;;;5040249;28;43473;-63
2022/06/15 13:25:09;;;;;;;2.78;2.10;;;21.30;53.90;;;;;;5042811;28;43455;-63
2022/06/15 13:27:41;;;;;;;2.45;1.75;;;21.30;53.20;;;;;;5041789;28;44021;-63
2022/06/15 13:30:17;;;;;;;1.98;1.80;;;21.30;53.80;;;;;;5040073;28;43441;-63
2022/06/15 13:32:54;;;;;;;2.20;2.00;;;21.30;52.80;;;;;;5037789;28;43542;-63
2022/06/15 13:35:31;;;;;;;1.85;1.67;;;21.30;52.90;;;;;;5041510;28;43586;-63
2022/06/15 13:38:02;;;;;;;1.90;1.80;;;21.30;52.20;;;;;;5040110;28;43692;-63
2022/06/15 13:40:58;;;;;;;2.00;1.80;;;21.40;52.30;;;;;;5041320;28;43626;-62
2022/06/15 13:43:29;;;;;;;2.65;1.75;;;21.40;53.40;;;;;;5041918;28;43561;-63
2022/06/15 13:46:03;;;;;;;2.38;1.88;;;21.40;52.90;;;;;;5041495;28;43450;-63
2022/06/15 13:48:41;;;;;;;1.98;1.85;;;21.40;52.50;;;;;;5041776;28;45429;-63
2022/06/15 13:51:16;;;;;;;2.55;1.65;;;21.40;52.40;;;;;;5041627;28;43550;-63
2022/06/15 13:53:59;;;;;;;1.75;1.65;;;21.40;52.60;;;;;;5041288;28;43882;-63
2022/06/15 13:56:48;;;;;;;2.00;1.77;;;21.40;53.20;;;;;;5042153;28;43494;-64
2022/06/15 13:59:15;;;;;;;2.92;1.67;;;21.50;53.40;;;;;;5041112;28;44686;-63